sensor_id;sensor_type;location;lat;lon;timestamp;pressure;altitude;pressure_sealevel;temperature;humidity
48644;BME280;34928;37.302;-121.984;2024-03-02T00:04:08;100351.0;;;24.54;29.73
48644;BME280;34928;37.302;-121.984;2024-03-02T00:14:13;100355.0;;;24.45;29.43
48644;BME280;34928;37.302;-121.984;2024-03-02T00:24:21;100344.0;;;24.27;29.80
48644;BME280;34928;37.302;-121.984;2024-03-02T00:34:33;100311.0;;;24.32;29.11
48644;BME280;34928;37.302;-121.984;2024-03-02T00:44:38;100350.0;;;24.19;29.54
48644;BME280;34928;37.302;-121.984;2024-03-02T00:54:43;100305.0;;;24.03;30.15
48644;BME280;34928;37.302;-121.984;2024-03-02T01:04:48;100342.0;;;24.12;30.10
48644;BME280;34928;37.302;-121.984;2024-03-02T01:14:53;100332.0;;;23.93;30.88
48644;BME280;34928;37.302;-121.984;2024-03-02T01:24:58;100324.0;;;24.24;30.74
48644;BME280;34928;37.302;-121.984;2024-03-02T01:35:03;100323.0;;;24.23;30.82
48644;BME280;34928;37.302;-121.984;2024-03-02T01:45:09;100324.0;;;24.22;30.77
48644;BME280;34928;37.302;-121.984;2024-03-02T01:55:13;100292.0;;;24.19;30.78
48644;BME280;34928;37.302;-121.984;2024-03-02T02:05:18;100273.0;;;24.04;31.05
48644;BME280;34928;37.302;-121.984;2024-03-02T02:15:25;100277.0;;;23.52;30.99
48644;BME280;34928;37.302;-121.984;2024-03-02T02:25:28;100277.0;;;23.68;31.02
48644;BME280;34928;37.302;-121.984;2024-03-02T02:35:33;100264.0;;;23.61;30.96
48644;BME280;34928;37.302;-121.984;2024-03-02T02:45:40;100245.0;;;23.57;31.92
48644;BME280;34928;37.302;-121.984;2024-03-02T02:55:44;100243.0;;;23.44;31.78
48644;BME280;34928;37.302;-121.984;2024-03-02T03:05:48;100266.0;;;23.34;31.67
48644;BME280;34928;37.302;-121.984;2024-03-02T03:15:53;100262.0;;;24.04;31.33
48644;BME280;34928;37.302;-121.984;2024-03-02T03:25:57;100274.0;;;23.68;31.68
48644;BME280;34928;37.302;-121.984;2024-03-02T03:36:04;100266.0;;;23.82;31.38
48644;BME280;34928;37.302;-121.984;2024-03-02T03:46:08;100285.0;;;23.75;31.72
48644;BME280;34928;37.302;-121.984;2024-03-02T03:56:13;100270.0;;;23.81;31.94
48644;BME280;34928;37.302;-121.984;2024-03-02T04:06:17;100255.0;;;23.84;32.30
48644;BME280;34928;37.302;-121.984;2024-03-02T04:16:23;100255.0;;;23.87;31.95
48644;BME280;34928;37.302;-121.984;2024-03-02T04:26:27;100231.0;;;23.82;32.11
48644;BME280;34928;37.302;-121.984;2024-03-02T04:36:32;100260.0;;;23.87;31.77
48644;BME280;34928;37.302;-121.984;2024-03-02T04:46:37;100261.0;;;24.04;32.30
48644;BME280;34928;37.302;-121.984;2024-03-02T04:56:42;100230.0;;;23.84;32.15
48644;BME280;34928;37.302;-121.984;2024-03-02T05:06:48;100208.0;;;24.35;32.35
48644;BME280;34928;37.302;-121.984;2024-03-02T05:16:53;100205.0;;;23.86;32.05
48644;BME280;34928;37.302;-121.984;2024-03-02T05:26:58;100214.0;;;24.12;31.89
48644;BME280;34928;37.302;-121.984;2024-03-02T05:37:03;100206.0;;;23.88;31.52
48644;BME280;34928;37.302;-121.984;2024-03-02T05:47:07;100209.0;;;23.89;31.78
48644;BME280;34928;37.302;-121.984;2024-03-02T05:57:12;100239.0;;;23.83;32.11
48644;BME280;34928;37.302;-121.984;2024-03-02T06:07:18;100210.0;;;23.86;32.04
48644;BME280;34928;37.302;-121.984;2024-03-02T06:17:24;100234.0;;;23.86;32.15
48644;BME280;34928;37.302;-121.984;2024-03-02T06:27:28;100247.0;;;24.36;31.83
48644;BME280;34928;37.302;-121.984;2024-03-02T06:37:33;100228.0;;;24.02;31.68
48644;BME280;34928;37.302;-121.984;2024-03-02T06:47:38;100216.0;;;23.73;31.66
48644;BME280;34928;37.302;-121.984;2024-03-02T06:57:43;100203.0;;;23.92;31.68
48644;BME280;34928;37.302;-121.984;2024-03-02T07:07:59;100206.0;;;23.84;31.67
48644;BME280;34928;37.302;-121.984;2024-03-02T07:18:04;100218.0;;;24.05;31.58
48644;BME280;34928;37.302;-121.984;2024-03-02T07:28:08;100237.0;;;23.97;31.45
48644;BME280;34928;37.302;-121.984;2024-03-02T07:38:13;100219.0;;;23.37;31.18
48644;BME280;34928;37.302;-121.984;2024-03-02T07:48:18;100226.0;;;23.30;31.05
48644;BME280;34928;37.302;-121.984;2024-03-02T07:58:23;100242.0;;;23.27;30.93
48644;BME280;34928;37.302;-121.984;2024-03-02T08:08:28;100260.0;;;23.37;30.96
48644;BME280;34928;37.302;-121.984;2024-03-02T08:18:34;100241.0;;;23.57;30.95
48644;BME280;34928;37.302;-121.984;2024-03-02T08:28:38;100249.0;;;23.47;30.97
48644;BME280;34928;37.302;-121.984;2024-03-02T08:38:44;100213.0;;;23.37;31.03
48644;BME280;34928;37.302;-121.984;2024-03-02T08:48:48;100212.0;;;23.32;31.03
48644;BME280;34928;37.302;-121.984;2024-03-02T08:58:53;100242.0;;;23.19;31.04
48644;BME280;34928;37.302;-121.984;2024-03-02T09:08:58;100235.0;;;23.13;31.12
48644;BME280;34928;37.302;-121.984;2024-03-02T09:19:03;100252.0;;;23.11;31.00
48644;BME280;34928;37.302;-121.984;2024-03-02T09:29:08;100236.0;;;22.72;31.13
48644;BME280;34928;37.302;-121.984;2024-03-02T09:39:13;100269.0;;;22.70;31.04
48644;BME280;34928;37.302;-121.984;2024-03-02T09:49:18;100330.0;;;23.04;31.09
48644;BME280;34928;37.302;-121.984;2024-03-02T09:59:22;100304.0;;;22.87;30.93
48644;BME280;34928;37.302;-121.984;2024-03-02T10:09:29;100311.0;;;22.86;31.00
48644;BME280;34928;37.302;-121.984;2024-03-02T10:19:33;100299.0;;;22.62;31.00
48644;BME280;34928;37.302;-121.984;2024-03-02T10:29:40;100278.0;;;22.56;30.90
48644;BME280;34928;37.302;-121.984;2024-03-02T10:39:43;100247.0;;;22.41;31.10
48644;BME280;34928;37.302;-121.984;2024-03-02T10:49:53;100263.0;;;22.37;31.11
48644;BME280;34928;37.302;-121.984;2024-03-02T11:00:02;100331.0;;;22.50;31.09
48644;BME280;34928;37.302;-121.984;2024-03-02T11:10:09;100300.0;;;22.51;31.02
48644;BME280;34928;37.302;-121.984;2024-03-02T11:20:14;100294.0;;;22.21;31.08
48644;BME280;34928;37.302;-121.984;2024-03-02T11:40:48;100305.0;;;22.34;31.23
48644;BME280;34928;37.302;-121.984;2024-03-02T11:50:53;100313.0;;;22.33;31.08
48644;BME280;34928;37.302;-121.984;2024-03-02T12:01:01;100307.0;;;22.24;31.08
48644;BME280;34928;37.302;-121.984;2024-03-02T12:11:08;100347.0;;;22.15;31.15
48644;BME280;34928;37.302;-121.984;2024-03-02T12:21:13;100336.0;;;22.02;31.20
48644;BME280;34928;37.302;-121.984;2024-03-02T12:31:18;100342.0;;;22.00;31.19
48644;BME280;34928;37.302;-121.984;2024-03-02T12:41:23;100327.0;;;21.82;31.30
48644;BME280;34928;37.302;-121.984;2024-03-02T12:51:28;100361.0;;;21.79;31.40
48644;BME280;34928;37.302;-121.984;2024-03-02T13:01:33;100356.0;;;21.67;31.40
48644;BME280;34928;37.302;-121.984;2024-03-02T13:11:38;100371.0;;;21.60;31.34
48644;BME280;34928;37.302;-121.984;2024-03-02T13:21:43;100376.0;;;21.38;31.59
48644;BME280;34928;37.302;-121.984;2024-03-02T13:31:48;100398.0;;;21.94;31.27
48644;BME280;34928;37.302;-121.984;2024-03-02T13:41:53;100389.0;;;21.63;31.28
48644;BME280;34928;37.302;-121.984;2024-03-02T13:51:57;100388.0;;;21.74;31.90
48644;BME280;34928;37.302;-121.984;2024-03-02T14:02:04;100391.0;;;21.61;32.29
48644;BME280;34928;37.302;-121.984;2024-03-02T14:12:08;100403.0;;;21.75;32.16
48644;BME280;34928;37.302;-121.984;2024-03-02T14:22:12;100409.0;;;21.67;32.14
48644;BME280;34928;37.302;-121.984;2024-03-02T14:32:18;100428.0;;;22.05;32.05
48644;BME280;34928;37.302;-121.984;2024-03-02T14:42:23;100436.0;;;21.67;32.11
48644;BME280;34928;37.302;-121.984;2024-03-02T14:52:28;100453.0;;;22.01;31.86
48644;BME280;34928;37.302;-121.984;2024-03-02T15:02:32;100458.0;;;21.92;31.80
48644;BME280;34928;37.302;-121.984;2024-03-02T15:12:38;100476.0;;;22.02;31.24
48644;BME280;34928;37.302;-121.984;2024-03-02T15:22:42;100504.0;;;22.07;31.57
48644;BME280;34928;37.302;-121.984;2024-03-02T15:32:48;100530.0;;;22.18;31.29
48644;BME280;34928;37.302;-121.984;2024-03-02T15:42:52;100541.0;;;22.18;31.66
48644;BME280;34928;37.302;-121.984;2024-03-02T15:52:58;100545.0;;;22.31;31.29
48644;BME280;34928;37.302;-121.984;2024-03-02T16:03:04;100553.0;;;22.37;31.21
48644;BME280;34928;37.302;-121.984;2024-03-02T16:13:08;100555.0;;;22.41;31.10
48644;BME280;34928;37.302;-121.984;2024-03-02T16:23:12;100568.0;;;22.41;31.11
48644;BME280;34928;37.302;-121.984;2024-03-02T16:33:17;100573.0;;;22.18;31.60
48644;BME280;34928;37.302;-121.984;2024-03-02T16:43:22;100583.0;;;22.37;31.41
48644;BME280;34928;37.302;-121.984;2024-03-02T16:53:28;100577.0;;;21.69;31.95
48644;BME280;34928;37.302;-121.984;2024-03-02T17:03:33;100589.0;;;22.22;31.41
48644;BME280;34928;37.302;-121.984;2024-03-02T17:13:38;100598.0;;;22.14;31.22
48644;BME280;34928;37.302;-121.984;2024-03-02T17:23:42;100596.0;;;22.14;31.01
48644;BME280;34928;37.302;-121.984;2024-03-02T17:33:47;100595.0;;;22.09;30.88
48644;BME280;34928;37.302;-121.984;2024-03-02T17:43:53;100590.0;;;22.10;30.73
48644;BME280;34928;37.302;-121.984;2024-03-02T17:53:58;100590.0;;;21.82;30.68
48644;BME280;34928;37.302;-121.984;2024-03-02T18:04:02;100571.0;;;22.10;30.49
48644;BME280;34928;37.302;-121.984;2024-03-02T18:14:08;100583.0;;;21.94;31.56
48644;BME280;34928;37.302;-121.984;2024-03-02T18:24:13;100610.0;;;21.69;33.80
48644;BME280;34928;37.302;-121.984;2024-03-02T18:34:18;100617.0;;;21.90;33.38
48644;BME280;34928;37.302;-121.984;2024-03-02T18:44:23;100674.0;;;21.88;33.75
48644;BME280;34928;37.302;-121.984;2024-03-02T18:54:27;100642.0;;;21.76;33.15
48644;BME280;34928;37.302;-121.984;2024-03-02T19:04:32;100633.0;;;21.71;32.55
48644;BME280;34928;37.302;-121.984;2024-03-02T19:14:38;100621.0;;;21.64;33.05
48644;BME280;34928;37.302;-121.984;2024-03-02T19:24:43;100615.0;;;21.52;33.09
48644;BME280;34928;37.302;-121.984;2024-03-02T19:34:47;100610.0;;;21.67;32.75
48644;BME280;34928;37.302;-121.984;2024-03-02T19:44:53;100624.0;;;21.43;32.88
48644;BME280;34928;37.302;-121.984;2024-03-02T19:54:58;100605.0;;;21.39;33.00
48644;BME280;34928;37.302;-121.984;2024-03-02T20:05:03;100597.0;;;21.35;32.97
48644;BME280;34928;37.302;-121.984;2024-03-02T20:15:09;100580.0;;;21.09;33.37
48644;BME280;34928;37.302;-121.984;2024-03-02T20:25:12;100585.0;;;21.59;33.16
48644;BME280;34928;37.302;-121.984;2024-03-02T20:35:18;100559.0;;;21.33;33.33
48644;BME280;34928;37.302;-121.984;2024-03-02T20:45:23;100535.0;;;21.30;33.26
48644;BME280;34928;37.302;-121.984;2024-03-02T20:55:27;100511.0;;;21.34;33.46
48644;BME280;34928;37.302;-121.984;2024-03-02T21:05:33;100502.0;;;21.29;33.16
48644;BME280;34928;37.302;-121.984;2024-03-02T21:15:38;100499.0;;;21.35;33.13
48644;BME280;34928;37.302;-121.984;2024-03-02T21:25:43;100493.0;;;21.86;32.39
48644;BME280;34928;37.302;-121.984;2024-03-02T21:35:48;100475.0;;;21.90;33.83
48644;BME280;34928;37.302;-121.984;2024-03-02T21:45:53;100461.0;;;21.69;34.37
48644;BME280;34928;37.302;-121.984;2024-03-02T21:56:01;100464.0;;;22.17;33.08
48644;BME280;34928;37.302;-121.984;2024-03-02T22:06:08;100452.0;;;22.06;34.24
48644;BME280;34928;37.302;-121.984;2024-03-02T22:16:12;100462.0;;;22.15;34.72
48644;BME280;34928;37.302;-121.984;2024-03-02T22:26:19;100457.0;;;22.12;30.54
48644;BME280;34928;37.302;-121.984;2024-03-02T22:36:23;100441.0;;;22.25;30.27
48644;BME280;34928;37.302;-121.984;2024-03-02T22:46:27;100413.0;;;21.88;30.07
48644;BME280;34928;37.302;-121.984;2024-03-02T22:56:33;100395.0;;;21.66;30.04
48644;BME280;34928;37.302;-121.984;2024-03-02T23:06:38;100407.0;;;21.90;30.96
48644;BME280;34928;37.302;-121.984;2024-03-02T23:16:42;100413.0;;;22.07;29.27
48644;BME280;34928;37.302;-121.984;2024-03-02T23:26:48;100416.0;;;22.23;28.44
48644;BME280;34928;37.302;-121.984;2024-03-02T23:36:52;100427.0;;;22.01;28.41
48644;BME280;34928;37.302;-121.984;2024-03-02T23:46:57;100412.0;;;21.88;29.35
48644;BME280;34928;37.302;-121.984;2024-03-02T23:57:02;100411.0;;;21.58;29.29
